Terminal Aerodrome Forecast
Issued by NWS

Home | Current Version | Previous Version | Text Only | Print | Product List | Glossary On
Versions: 1 2 3 4 5 6 7 8 9 10 11 12 13 14 15
294
FTUS44 KBMX 201130
TAFTCL
TAF
KTCL 201130Z 2012/2112 35005KT P6SM SKC
      TEMPO 2012/2013 5SM BR
     FM201800 35007KT P6SM SCT050 BKN100
     FM210200 00000KT P6SM SCT250
     FM211000 00000KT 5SM BR SKC=

USA.gov is the U.S. government's official web portal to all federal, state and local government web resources and services.